createdAt,value
2018-12-29T00:01:16.029Z,101911.25
2018-12-29T00:04:03.800Z,101913.75
2018-12-29T00:06:32.288Z,101909.28
2018-12-29T00:09:00.769Z,101910.84
2018-12-29T00:11:29.260Z,101913.22
2018-12-29T00:14:17.080Z,101916.67
2018-12-29T00:16:45.580Z,101908.91
2018-12-29T00:19:14.059Z,101912.49
2018-12-29T00:22:01.697Z,101907.86
2018-12-29T00:24:49.423Z,101910.27
2018-12-29T00:27:37.246Z,101904.38
2018-12-29T00:30:45.643Z,101903.25
2018-12-29T00:33:33.400Z,101905.13
2018-12-29T00:36:21.141Z,101907.74
2018-12-29T00:38:49.623Z,101912.49
2018-12-29T00:41:18.115Z,101909.80
2018-12-29T00:43:46.605Z,101904.84
2018-12-29T00:46:15.094Z,101909.98
2018-12-29T00:48:43.577Z,101907.44
2018-12-29T00:51:31.183Z,101901.96
2018-12-29T00:57:06.225Z,101910.86
2018-12-29T00:59:54.002Z,101908.54
2018-12-29T01:02:41.566Z,101914.73
2018-12-29T01:05:29.163Z,101909.88
2018-12-29T01:07:57.655Z,101909.30
2018-12-29T01:13:52.040Z,101918.95
2018-12-29T01:16:39.778Z,101908.01
2018-12-29T01:19:08.260Z,101913.21
2018-12-29T01:21:36.747Z,101913.21
2018-12-29T01:24:24.475Z,101919.29
2018-12-29T01:26:52.962Z,101919.55
2018-12-29T01:29:40.686Z,101924.97
2018-12-29T01:32:28.424Z,101918.00
2018-12-29T01:34:56.914Z,101926.13
2018-12-29T01:37:44.511Z,101922.65
2018-12-29T01:40:12.994Z,101931.35
2018-12-29T01:43:00.731Z,101936.38
2018-12-29T01:45:29.210Z,101938.80
2018-12-29T01:48:10.398Z,101941.75
2018-12-29T01:50:38.876Z,101944.42
2018-12-29T01:56:00.171Z,101941.63
2018-12-29T01:58:28.665Z,101936.68
2018-12-29T02:01:16.498Z,101932.67
2018-12-29T02:06:57.900Z,101934.87
2018-12-29T02:09:45.511Z,101929.70
2018-12-29T02:12:14.002Z,101942.13
2018-12-29T02:14:42.482Z,101939.86
2018-12-29T02:17:10.968Z,101939.10
2018-12-29T02:22:14.135Z,101936.62
2018-12-29T02:24:42.617Z,101927.28
2018-12-29T02:27:30.352Z,101930.38
2018-12-29T02:29:58.832Z,101934.20
2018-12-29T02:32:27.320Z,101921.84
2018-12-29T02:35:15.053Z,101929.61
2018-12-29T02:37:43.553Z,101921.00
2018-12-29T02:40:12.031Z,101921.42
2018-12-29T02:42:40.520Z,101919.76
2018-12-29T02:45:33.160Z,101909.45
2018-12-29T02:47:58.475Z,101913.86
2018-12-29T02:50:46.203Z,101908.72
2018-12-29T02:53:14.696Z,101910.73
2018-12-29T02:56:02.297Z,101913.36
2018-12-29T02:58:50.030Z,101909.30
2018-12-29T03:01:37.626Z,101909.36
2018-12-29T03:04:06.116Z,101908.31
2018-12-29T03:06:34.597Z,101910.06
2018-12-29T03:09:22.332Z,101909.70
2018-12-29T03:12:09.932Z,101909.92
2018-12-29T03:14:57.536Z,101904.03
2018-12-29T03:20:19.282Z,101902.70
2018-12-29T03:22:47.796Z,101893.53
2018-12-29T03:25:35.392Z,101891.52
2018-12-29T03:28:22.996Z,101885.82
2018-12-29T03:31:10.653Z,101895.33
2018-12-29T03:33:58.327Z,101888.19
2018-12-29T03:36:26.809Z,101890.27
2018-12-29T03:39:14.547Z,101888.47
2018-12-29T03:42:02.278Z,101892.95
2018-12-29T03:44:30.771Z,101888.18
2018-12-29T03:46:59.250Z,101893.16
2018-12-29T03:49:27.733Z,101887.99
2018-12-29T03:52:15.462Z,101883.14
2018-12-29T03:54:43.953Z,101891.93
2018-12-29T03:57:31.690Z,101895.01
2018-12-29T04:00:19.283Z,101898.03
2018-12-29T04:02:47.769Z,101898.84
2018-12-29T04:05:16.255Z,101900.37
2018-12-29T04:07:44.735Z,101899.03
2018-12-29T04:10:53.141Z,101906.34
2018-12-29T04:13:40.965Z,101901.20
2018-12-29T04:16:09.453Z,101896.08
2018-12-29T04:18:37.939Z,101892.52
2018-12-29T04:23:59.414Z,101887.94
2018-12-29T04:26:27.899Z,101885.47
2018-12-29T04:28:56.387Z,101886.49
2018-12-29T04:31:44.116Z,101881.41
2018-12-29T04:34:12.607Z,101889.12
2018-12-29T04:37:00.194Z,101886.14
2018-12-29T04:39:28.690Z,101882.34
2018-12-29T04:42:16.414Z,101883.52
2018-12-29T04:44:44.907Z,101890.54
2018-12-29T04:47:13.387Z,101882.91
2018-12-29T04:49:41.885Z,101882.34
2018-12-29T04:52:10.362Z,101887.87
2018-12-29T04:54:58.099Z,101881.66
2018-12-29T04:57:45.828Z,101885.80
2018-12-29T05:00:33.567Z,101887.91
2018-12-29T05:03:02.047Z,101882.97
2018-12-29T05:05:49.646Z,101883.08
2018-12-29T05:08:37.244Z,101880.75
2018-12-29T05:11:05.733Z,101881.35
2018-12-29T05:13:34.216Z,101882.34
2018-12-29T05:16:22.049Z,101881.42
2018-12-29T05:18:50.527Z,101882.59
2018-12-29T05:21:38.273Z,101881.03
2018-12-29T05:24:06.750Z,101884.09
2018-12-29T05:26:54.488Z,101884.13
2018-12-29T05:29:42.268Z,101883.22
2018-12-29T05:32:29.868Z,101886.39
2018-12-29T05:34:58.365Z,101886.08
2018-12-29T05:37:46.094Z,101887.70
2018-12-29T05:40:33.830Z,101889.94
2018-12-29T05:43:02.310Z,101888.55
2018-12-29T05:45:30.804Z,101882.45
2018-12-29T05:47:59.273Z,101882.36
2018-12-29T05:50:47.105Z,101878.77
2018-12-29T05:53:15.588Z,101883.30
2018-12-29T05:56:03.337Z,101880.97
2018-12-29T06:04:31.451Z,101879.66
2018-12-29T06:07:19.196Z,101884.31
2018-12-29T06:09:47.673Z,101883.11
2018-12-29T06:12:35.286Z,101880.39
2018-12-29T06:17:58.372Z,101886.84
2018-12-29T06:20:46.110Z,101892.92
2018-12-29T06:23:33.703Z,101891.72
2018-12-29T06:26:02.198Z,101890.98
2018-12-29T06:28:30.680Z,101896.24
2018-12-29T06:31:18.296Z,101900.49
2018-12-29T06:34:06.018Z,101900.58
2018-12-29T06:37:14.427Z,101905.38
2018-12-29T06:40:02.156Z,101902.61
2018-12-29T06:42:30.656Z,101906.55
2018-12-29T06:47:46.587Z,101901.32
2018-12-29T06:50:15.073Z,101907.06
2018-12-29T06:52:43.563Z,101917.46
2018-12-29T06:55:31.327Z,101926.02
2018-12-29T06:57:59.815Z,101931.24
2018-12-29T07:00:28.310Z,101931.73
2018-12-29T07:03:16.035Z,101927.98
2018-12-29T07:05:44.877Z,101920.28
2018-12-29T07:08:32.695Z,101912.03
2018-12-29T07:11:20.437Z,101912.03
2018-12-29T07:14:08.168Z,101910.00
2018-12-29T07:16:42.168Z,101910.23
2018-12-29T07:19:26.117Z,101907.78
2018-12-29T07:21:54.614Z,101912.52
2018-12-29T07:24:42.340Z,101923.05
2018-12-29T07:27:29.948Z,101921.13
2018-12-29T07:29:58.435Z,101917.38
2018-12-29T07:32:26.928Z,101917.40
2018-12-29T07:34:55.490Z,101907.83
2018-12-29T07:37:23.986Z,101902.49
2018-12-29T07:39:52.467Z,101901.91
2018-12-29T07:42:20.961Z,101912.36
2018-12-29T07:44:49.445Z,101910.35
2018-12-29T07:47:37.058Z,101910.11
2018-12-29T07:50:45.448Z,101909.25
2018-12-29T07:56:06.692Z,101895.89
2018-12-29T07:58:35.183Z,101898.55
2018-12-29T08:04:16.559Z,101897.14
2018-12-29T08:06:45.058Z,101886.03
2018-12-29T08:09:32.657Z,101899.03
2018-12-29T08:12:01.161Z,101896.32
2018-12-29T08:14:29.636Z,101892.50
2018-12-29T08:16:58.133Z,101892.66
2018-12-29T08:19:26.615Z,101895.22
2018-12-29T08:21:55.111Z,101895.22
2018-12-29T08:27:11.044Z,101895.59
2018-12-29T08:29:58.645Z,101888.56
2018-12-29T08:32:27.143Z,101887.19
2018-12-29T08:34:55.629Z,101881.81
2018-12-29T08:37:24.122Z,101884.07
2018-12-29T08:39:52.603Z,101885.90
2018-12-29T08:44:55.469Z,101873.47
2018-12-29T08:47:43.076Z,101870.17
2018-12-29T08:50:13.262Z,101853.58
2018-12-29T08:52:41.778Z,101808.08
2018-12-29T08:55:30.081Z,101851.14
2018-12-29T08:57:59.732Z,101820.95
2018-12-29T09:00:47.329Z,101795.95
2018-12-29T09:03:15.837Z,101846.37
2018-12-29T09:05:44.320Z,101835.16
2018-12-29T09:08:32.061Z,101823.75
2018-12-29T09:11:19.661Z,101834.27
2018-12-29T09:14:07.403Z,101846.45
2018-12-29T09:16:55.006Z,101831.78
2018-12-29T09:19:27.244Z,101835.28
2018-12-29T09:21:53.707Z,101824.77
2018-12-29T09:24:22.213Z,101828.42
2018-12-29T09:27:09.945Z,101824.98
2018-12-29T09:29:57.559Z,101828.00
2018-12-29T09:32:45.388Z,101808.95
2018-12-29T09:35:32.989Z,101818.81
2018-12-29T09:38:01.784Z,101811.45
2018-12-29T09:40:30.288Z,101806.65
2018-12-29T09:43:18.017Z,101806.19
2018-12-29T09:45:46.506Z,101807.61
2018-12-29T09:50:49.441Z,101799.45
2018-12-29T09:53:37.189Z,101787.44
2018-12-29T09:56:05.669Z,101789.23
2018-12-29T09:58:34.166Z,101779.45
2018-12-29T10:01:21.898Z,101780.52
2018-12-29T10:04:09.506Z,101780.72
2018-12-29T10:06:57.104Z,101777.02
2018-12-29T10:09:25.595Z,101765.11
2018-12-29T10:12:13.188Z,101772.14
2018-12-29T10:14:41.681Z,101769.44
2018-12-29T10:17:29.409Z,101752.37
2018-12-29T10:19:57.904Z,101751.63
2018-12-29T10:22:45.503Z,101746.94
2018-12-29T10:25:33.110Z,101741.79
2018-12-29T10:28:20.950Z,101731.23
2018-12-29T10:30:49.440Z,101737.55
2018-12-29T10:33:17.929Z,101729.56
2018-12-29T10:38:53.106Z,101725.63
2018-12-29T10:41:21.588Z,101725.37
2018-12-29T10:43:50.074Z,101727.35
2018-12-29T10:46:37.803Z,101723.55
2018-12-29T10:49:06.295Z,101729.66
2018-12-29T10:51:34.770Z,101730.03
2018-12-29T10:54:22.601Z,101729.17
2018-12-29T10:56:51.083Z,101729.48
2018-12-29T10:59:19.570Z,101728.46
2018-12-29T11:01:48.051Z,101717.92
2018-12-29T11:07:09.703Z,101716.09
2018-12-29T11:09:38.195Z,101708.37
2018-12-29T11:12:25.795Z,101700.13
2018-12-29T11:14:54.314Z,101691.62
2018-12-29T11:17:42.434Z,101681.48
2018-12-29T11:20:12.275Z,101681.95
2018-12-29T11:22:40.809Z,101675.69
2018-12-29T11:25:09.317Z,101677.00
2018-12-29T11:27:56.978Z,101677.81
2018-12-29T11:30:25.559Z,101670.61
2018-12-29T11:32:54.092Z,101653.66
2018-12-29T11:35:41.926Z,101655.33
2018-12-29T11:38:29.672Z,101650.92
2018-12-29T11:40:58.192Z,101653.58
2018-12-29T11:46:34.896Z,101646.83
2018-12-29T11:49:03.414Z,101641.05
2018-12-29T11:51:51.051Z,101635.80
2018-12-29T11:54:19.553Z,101636.92
2018-12-29T11:56:48.071Z,101630.40
2018-12-29T11:59:16.590Z,101626.95
2018-12-29T12:02:04.417Z,101624.31
2018-12-29T12:04:52.055Z,101616.50
2018-12-29T12:07:39.652Z,101628.16
2018-12-29T12:10:08.164Z,101634.42
2018-12-29T12:12:38.668Z,101620.72
2018-12-29T12:15:47.086Z,101613.25
2018-12-29T12:18:17.358Z,101607.75
2018-12-29T12:21:04.923Z,101606.37
2018-12-29T12:23:52.670Z,101615.05
2018-12-29T12:26:21.193Z,101617.17
2018-12-29T12:29:09.044Z,101596.94
2018-12-29T12:31:58.401Z,101603.70
2018-12-29T12:34:26.918Z,101607.16
2018-12-29T12:36:55.412Z,101601.50
2018-12-29T12:39:43.017Z,101590.59
2018-12-29T12:42:11.515Z,101591.17
2018-12-29T12:44:40.004Z,101587.62
2018-12-29T12:47:10.238Z,101577.41
2018-12-29T12:49:38.855Z,101568.47
2018-12-29T12:52:07.338Z,101585.69
2018-12-29T12:54:35.820Z,101579.80
2018-12-29T12:57:25.286Z,101564.87
2018-12-29T12:59:55.572Z,101564.25
2018-12-29T13:02:25.815Z,101570.30
2018-12-29T13:04:54.299Z,101557.86
2018-12-29T13:07:41.955Z,101548.02
2018-12-29T13:10:29.684Z,101539.39
2018-12-29T13:12:58.182Z,101536.90
2018-12-29T13:15:26.704Z,101513.42
2018-12-29T13:17:55.187Z,101507.58
2018-12-29T13:20:42.797Z,101504.11
2018-12-29T13:23:11.308Z,101492.27
2018-12-29T13:25:58.910Z,101483.89
2018-12-29T13:28:46.518Z,101477.16
2018-12-29T13:31:15.012Z,101480.07
2018-12-29T13:33:43.510Z,101464.85
2018-12-29T13:36:33.003Z,101472.58
2018-12-29T13:39:01.504Z,101464.64
2018-12-29T13:41:30.004Z,101454.80
2018-12-29T13:44:17.765Z,101453.57
2018-12-29T13:46:46.298Z,101453.48
2018-12-29T13:49:14.785Z,101443.68
2018-12-29T13:51:43.270Z,101443.00
2018-12-29T13:57:01.051Z,101425.94
2018-12-29T13:59:29.667Z,101414.57
2018-12-29T14:02:24.634Z,101406.16
2018-12-29T14:04:53.115Z,101406.41
2018-12-29T14:07:40.751Z,101402.30
2018-12-29T14:10:28.359Z,101410.15
2018-12-29T14:12:56.861Z,101383.34
2018-12-29T14:15:26.442Z,101377.09
2018-12-29T14:17:55.623Z,101382.87
2018-12-29T14:20:24.135Z,101378.63
2018-12-29T14:22:52.637Z,101382.58
2018-12-29T14:25:40.410Z,101368.70
2018-12-29T14:28:28.215Z,101372.86
2018-12-29T14:30:56.742Z,101364.92
2018-12-29T14:33:44.568Z,101358.02
2018-12-29T14:36:13.081Z,101352.63
2018-12-29T14:39:00.707Z,101346.47
2018-12-29T14:44:03.163Z,101368.41
2018-12-29T14:46:50.816Z,101375.66
2018-12-29T14:49:19.333Z,101366.83
2018-12-29T14:51:48.099Z,101366.97
2018-12-29T14:54:35.850Z,101364.34
2018-12-29T14:57:04.463Z,101360.34
2018-12-29T14:59:33.269Z,101360.97
2018-12-29T15:04:36.304Z,101350.58
2018-12-29T15:07:04.900Z,101345.59
2018-12-29T15:09:33.411Z,101344.11
2018-12-29T15:12:01.972Z,101329.42
2018-12-29T15:14:49.667Z,101316.91
2018-12-29T15:17:18.191Z,101296.98
2018-12-29T15:19:46.696Z,101305.34
2018-12-29T15:22:34.614Z,101302.88
2018-12-29T15:25:22.484Z,101304.31
2018-12-29T15:27:52.776Z,101298.42
2018-12-29T15:30:21.281Z,101280.78
2018-12-29T15:33:08.928Z,101266.38
2018-12-29T15:35:56.772Z,101254.72
2018-12-29T15:38:25.300Z,101247.34
2018-12-29T15:41:14.610Z,101244.88
2018-12-29T15:43:43.094Z,101217.97
2018-12-29T15:46:11.602Z,101235.98
2018-12-29T15:48:40.150Z,101236.58
2018-12-29T15:51:08.674Z,101228.78
2018-12-29T15:53:37.199Z,101235.48
2018-12-29T15:56:24.855Z,101232.92
2018-12-29T15:58:53.368Z,101229.50
2018-12-29T16:01:23.578Z,101232.34
2018-12-29T16:03:52.106Z,101220.73
2018-12-29T16:06:20.622Z,101229.55
2018-12-29T16:08:49.170Z,101224.54
2018-12-29T16:11:25.998Z,101209.16
2018-12-29T16:13:49.624Z,101201.74
2018-12-29T16:16:18.153Z,101206.07
2018-12-29T16:19:05.994Z,101200.64
2018-12-29T16:21:34.546Z,101201.53
2018-12-29T16:24:03.072Z,101203.52
2018-12-29T16:26:50.720Z,101196.19
2018-12-29T16:29:19.227Z,101197.52
2018-12-29T16:31:47.729Z,101189.41
2018-12-29T16:34:37.190Z,101187.00
2018-12-29T16:37:24.802Z,101188.34
2018-12-29T16:39:53.376Z,101167.08
2018-12-29T16:42:42.815Z,101173.99
2018-12-29T16:45:11.370Z,101163.89
2018-12-29T16:47:39.911Z,101165.02
2018-12-29T16:50:48.307Z,101169.95
2018-12-29T16:53:36.046Z,101168.52
2018-12-29T16:56:04.579Z,101166.97
2018-12-29T16:58:33.124Z,101153.97
2018-12-29T17:01:20.799Z,101139.64
2018-12-29T17:04:08.813Z,101132.05
2018-12-29T17:06:37.625Z,101122.19
2018-12-29T17:09:46.074Z,101121.69
2018-12-29T17:12:36.950Z,101117.94
2018-12-29T17:15:45.848Z,101106.05
2018-12-29T17:18:16.161Z,101096.02
2018-12-29T17:20:44.721Z,101087.59
2018-12-29T17:23:32.435Z,101087.25
2018-12-29T17:26:01.041Z,101075.56
2018-12-29T17:28:31.291Z,101077.34
2018-12-29T17:30:59.837Z,101069.93
2018-12-29T17:33:28.355Z,101067.35
2018-12-29T17:36:16.152Z,101070.58
2018-12-29T17:39:04.485Z,101061.63
2018-12-29T17:41:33.008Z,101055.14
2018-12-29T17:44:01.518Z,101048.70
2018-12-29T17:46:31.773Z,101039.56
2018-12-29T17:49:00.318Z,101033.51
2018-12-29T17:51:47.933Z,101035.14
2018-12-29T17:54:16.438Z,101029.88
2018-12-29T17:56:45.251Z,101024.38
2018-12-29T17:59:32.982Z,101015.02
2018-12-29T18:04:50.617Z,101003.52
2018-12-29T18:07:20.900Z,101001.16
2018-12-29T18:10:08.514Z,100976.84
2018-12-29T18:12:37.034Z,100981.76
2018-12-29T18:15:45.477Z,100979.23
2018-12-29T18:18:33.191Z,100990.70
2018-12-29T18:21:01.737Z,100974.56
2018-12-29T18:23:31.983Z,100972.58
2018-12-29T18:26:00.487Z,100958.09
2018-12-29T18:28:29.374Z,100963.81
2018-12-29T18:30:59.243Z,100965.19
2018-12-29T18:33:47.048Z,100957.82
2018-12-29T18:36:15.571Z,100946.75
2018-12-29T18:38:45.819Z,100945.66
2018-12-29T18:41:14.346Z,100948.05
2018-12-29T18:44:02.068Z,100947.29
2018-12-29T18:46:30.572Z,100947.84
2018-12-29T18:48:59.109Z,100939.39
2018-12-29T18:51:27.649Z,100934.20
2018-12-29T18:54:15.471Z,100932.50
2018-12-29T18:57:03.340Z,100937.69
2018-12-29T18:59:31.844Z,100924.87
2018-12-29T19:02:00.338Z,100911.45
2018-12-29T19:04:28.852Z,100913.41
2018-12-29T19:06:57.410Z,100918.89
2018-12-29T19:09:25.933Z,100907.68
2018-12-29T19:11:54.535Z,100900.36
2018-12-29T19:14:24.748Z,100903.58
2018-12-29T19:16:55.001Z,100891.93
2018-12-29T19:19:25.233Z,100894.72
2018-12-29T19:21:53.771Z,100886.57
2018-12-29T19:24:41.546Z,100880.47
2018-12-29T19:27:10.153Z,100883.12
2018-12-29T19:29:40.370Z,100882.62
2018-12-29T19:32:10.595Z,100885.91
2018-12-29T19:34:40.814Z,100884.87
2018-12-29T19:37:11.067Z,100881.88
2018-12-29T19:40:00.429Z,100878.55
2018-12-29T19:42:29.183Z,100884.25
2018-12-29T19:45:16.827Z,100870.63
2018-12-29T19:47:45.787Z,100872.16
2018-12-29T19:50:16.132Z,100873.72
2018-12-29T19:52:44.737Z,100867.30
2018-12-29T19:55:32.505Z,100867.86
2018-12-29T19:58:00.998Z,100875.77
2018-12-29T20:00:50.640Z,100881.03
2018-12-29T20:03:21.009Z,100889.30
2018-12-29T20:05:51.241Z,100871.47
2018-12-29T20:08:19.746Z,100869.84
2018-12-29T20:10:49.980Z,100871.94
2018-12-29T20:13:18.494Z,100876.67
2018-12-29T20:15:47.030Z,100874.16
2018-12-29T20:18:34.749Z,100879.89
2018-12-29T20:21:03.282Z,100872.84
2018-12-29T20:23:31.777Z,100868.36
2018-12-29T20:26:00.308Z,100872.62
2018-12-29T20:28:47.970Z,100875.47
2018-12-29T20:31:16.490Z,100874.31
2018-12-29T20:33:44.984Z,100874.83
2018-12-29T20:36:13.511Z,100872.47
2018-12-29T20:39:01.244Z,100878.88
2018-12-29T20:41:48.977Z,100878.09
2018-12-29T20:47:04.911Z,100880.54
2018-12-29T20:52:20.846Z,100884.48
2018-12-29T20:54:49.335Z,100870.38
2018-12-29T20:57:17.883Z,100877.27
2018-12-29T20:59:46.411Z,100887.03
2018-12-29T21:02:14.963Z,100882.64
2018-12-29T21:05:02.593Z,100889.27
2018-12-29T21:07:31.131Z,100893.04
2018-12-29T21:09:59.656Z,100888.91
2018-12-29T21:12:28.165Z,100883.69
2018-12-29T21:17:44.216Z,100886.61
2018-12-29T21:20:17.372Z,100879.45
2018-12-29T21:22:43.019Z,100878.52
2018-12-29T21:27:59.058Z,100879.28
2018-12-29T21:30:27.693Z,100885.94
2018-12-29T21:33:15.461Z,100880.07
2018-12-29T21:35:45.711Z,100884.77
2018-12-29T21:38:33.401Z,100882.67
2018-12-29T21:41:21.065Z,100891.72
2018-12-29T21:44:08.777Z,100885.77
2018-12-29T21:46:56.431Z,100881.70
2018-12-29T21:49:25.058Z,100881.80
2018-12-29T21:51:53.569Z,100891.13
2018-12-29T21:54:22.071Z,100888.64
2018-12-29T21:56:50.613Z,100886.61
2018-12-29T21:59:19.107Z,100887.58
2018-12-29T22:02:06.776Z,100891.02
2018-12-29T22:04:54.371Z,100884.54
2018-12-29T22:07:22.861Z,100895.47
2018-12-29T22:09:51.414Z,100889.04
2018-12-29T22:12:39.271Z,100895.20
2018-12-29T22:17:56.880Z,100896.19
2018-12-29T22:20:44.723Z,100895.20
2018-12-29T22:23:32.643Z,100906.83
2018-12-29T22:26:01.257Z,100898.23
2018-12-29T22:28:48.896Z,100894.41
2018-12-29T22:31:17.367Z,100895.84
2018-12-29T22:33:47.587Z,100896.95
2018-12-29T22:36:16.085Z,100905.83
2018-12-29T22:39:24.599Z,100910.05
2018-12-29T22:41:53.131Z,100911.36
2018-12-29T22:44:21.639Z,100915.03
2018-12-29T22:46:50.170Z,100910.82
2018-12-29T22:49:37.930Z,100907.55
2018-12-29T22:52:25.793Z,100910.97
2018-12-29T22:55:13.415Z,100927.00
2018-12-29T22:57:41.933Z,100919.48
2018-12-29T23:00:50.428Z,100926.05
2018-12-29T23:03:18.998Z,100920.94
2018-12-29T23:05:47.556Z,100914.16
2018-12-29T23:08:16.087Z,100920.00
2018-12-29T23:10:44.599Z,100926.90
2018-12-29T23:13:13.132Z,100935.25
2018-12-29T23:15:41.802Z,100936.56
2018-12-29T23:18:29.433Z,100941.63
2018-12-29T23:20:57.940Z,100939.38
2018-12-29T23:23:26.513Z,100936.66
2018-12-29T23:25:56.763Z,100940.12
2018-12-29T23:28:44.595Z,100941.25
2018-12-29T23:34:00.543Z,100948.70
2018-12-29T23:36:29.091Z,100946.09
2018-12-29T23:38:57.644Z,100949.13
2018-12-29T23:44:13.608Z,100954.84
2018-12-29T23:46:42.190Z,100960.74
2018-12-29T23:49:29.998Z,100962.44
2018-12-29T23:52:00.266Z,100957.50
2018-12-29T23:54:28.879Z,100964.45
2018-12-29T23:56:59.162Z,100957.30
2018-12-29T23:59:27.703Z,100962.70
